createdAt,value
2022-08-10T00:01:51.372Z,43.22
2022-08-10T00:04:23.157Z,43.36
2022-08-10T00:06:53.047Z,43.63
2022-08-10T00:09:23.347Z,43.80
2022-08-10T00:11:52.183Z,43.96
2022-08-10T00:14:21.955Z,44.25
2022-08-10T00:16:50.161Z,44.34
2022-08-10T00:19:19.252Z,44.46
2022-08-10T00:21:49.550Z,44.23
2022-08-10T00:24:18.733Z,44.67
2022-08-10T00:27:52.951Z,44.56
2022-08-10T00:29:37.333Z,44.65
2022-08-10T00:32:06.160Z,44.61
2022-08-10T00:34:36.108Z,44.73
2022-08-10T00:37:04.696Z,44.74
2022-08-10T00:39:35.941Z,45.03
2022-08-10T00:42:08.672Z,44.82
2022-08-10T00:44:38.381Z,44.94
2022-08-10T00:47:07.483Z,45.15
2022-08-10T00:49:50.060Z,45.30
2022-08-10T00:52:20.033Z,45.22
2022-08-10T00:54:49.231Z,45.48
2022-08-10T00:57:20.661Z,45.39
2022-08-10T00:59:59.371Z,45.36
2022-08-10T01:02:33.304Z,45.43
2022-08-10T01:05:03.228Z,45.40
2022-08-10T01:07:52.173Z,45.59
2022-08-10T01:10:31.247Z,45.68
2022-08-10T01:13:07.687Z,45.53
2022-08-10T01:15:44.115Z,45.80
2022-08-10T01:18:19.731Z,45.64
2022-08-10T01:21:10.147Z,45.58
2022-08-10T01:24:06.750Z,45.48
2022-08-10T01:27:08.501Z,45.76
2022-08-10T01:29:50.153Z,45.93
2022-08-10T01:32:25.657Z,45.98
2022-08-10T01:34:58.029Z,46.06
2022-08-10T01:37:33.500Z,46.33
2022-08-10T01:40:05.825Z,46.07
2022-08-10T01:42:37.311Z,46.44
2022-08-10T01:45:11.043Z,46.15
2022-08-10T01:47:59.824Z,46.11
2022-08-10T01:50:31.922Z,46.19
2022-08-10T01:53:06.140Z,46.43
2022-08-10T01:55:36.422Z,46.81
2022-08-10T01:58:06.467Z,47.04
2022-08-10T02:00:40.038Z,47.02
2022-08-10T02:03:10.019Z,47.29
2022-08-10T02:05:41.262Z,47.38
2022-08-10T02:08:12.578Z,47.55
2022-08-10T02:10:42.130Z,47.71
2022-08-10T02:13:11.081Z,47.67
2022-08-10T02:16:01.465Z,47.68
2022-08-10T02:18:32.241Z,47.75
2022-08-10T02:21:03.508Z,47.88
2022-08-10T02:23:34.027Z,48.11
2022-08-10T02:26:04.585Z,48.07
2022-08-10T02:28:35.001Z,48.26
2022-08-10T02:31:08.809Z,48.30
2022-08-10T02:33:56.801Z,48.58
2022-08-10T02:36:28.955Z,48.66
2022-08-10T02:39:00.935Z,48.69
2022-08-10T02:45:12.567Z,48.70
2022-08-10T02:45:19.190Z,48.75
2022-08-10T02:47:26.573Z,48.96
2022-08-10T02:50:03.021Z,48.99
2022-08-10T02:52:42.122Z,48.89
2022-08-10T02:55:18.782Z,49.09
2022-08-10T02:58:12.534Z,49.28
2022-08-10T03:00:44.720Z,49.29
2022-08-10T03:03:21.135Z,49.49
2022-08-10T03:05:52.346Z,49.69
2022-08-10T03:08:25.692Z,49.38
2022-08-10T03:10:55.997Z,49.40
2022-08-10T03:13:25.504Z,49.69
2022-08-10T03:15:55.473Z,49.82
2022-08-10T03:18:26.029Z,49.92
2022-08-10T03:20:56.044Z,49.92
2022-08-10T03:23:26.376Z,50.06
2022-08-10T03:25:56.780Z,50.27
2022-08-10T03:28:26.696Z,50.21
2022-08-10T03:30:58.597Z,50.02
2022-08-10T03:33:32.211Z,50.45
2022-08-10T03:36:39.932Z,50.93
2022-08-10T03:38:51.852Z,50.85
2022-08-10T03:41:25.403Z,51.11
2022-08-10T03:43:59.475Z,51.52
2022-08-10T03:46:29.236Z,51.50
2022-08-10T03:49:03.241Z,51.29
2022-08-10T03:51:33.639Z,51.59
2022-08-10T03:54:07.198Z,51.55
2022-08-10T03:56:37.910Z,51.67
2022-08-10T03:59:07.961Z,51.31
2022-08-10T04:02:45.312Z,51.67
2022-08-10T04:04:28.581Z,51.61
2022-08-10T04:06:58.777Z,51.71
2022-08-10T04:09:53.945Z,51.84
2022-08-10T04:12:19.097Z,51.71
2022-08-10T04:14:52.962Z,51.35
2022-08-10T04:18:03.876Z,51.56
2022-08-10T04:20:19.720Z,51.13
2022-08-10T04:22:52.251Z,50.72
2022-08-10T04:25:21.982Z,50.71
2022-08-10T04:27:51.040Z,50.49
2022-08-10T04:30:19.044Z,50.49
2022-08-10T04:32:50.305Z,50.39
2022-08-10T04:35:21.944Z,50.20
2022-08-10T04:37:52.105Z,49.74
2022-08-10T04:40:29.332Z,49.28
2022-08-10T04:43:11.615Z,48.73
2022-08-10T04:45:49.613Z,48.54
2022-08-10T04:48:40.639Z,48.48
2022-08-10T04:51:17.589Z,48.84
2022-08-10T04:54:05.808Z,48.85
2022-08-10T04:56:40.277Z,49.00
2022-08-10T04:59:12.232Z,49.53
2022-08-10T05:02:22.434Z,49.79
2022-08-10T05:04:34.789Z,49.04
2022-08-10T05:07:10.706Z,48.69
2022-08-10T05:10:01.517Z,48.52
2022-08-10T05:12:27.369Z,49.11
2022-08-10T05:14:55.714Z,48.99
2022-08-10T05:17:24.708Z,48.63
2022-08-10T05:20:04.559Z,47.82
2022-08-10T05:22:39.739Z,47.61
2022-08-10T05:25:11.484Z,47.26
2022-08-10T05:27:40.815Z,47.12
2022-08-10T05:30:11.017Z,47.73
2022-08-10T05:32:57.381Z,47.47
2022-08-10T05:35:28.122Z,46.96
2022-08-10T05:38:12.373Z,47.06
2022-08-10T05:40:46.674Z,46.30
2022-08-10T05:43:18.614Z,45.62
2022-08-10T05:46:18.593Z,45.90
2022-08-10T05:48:55.138Z,46.67
2022-08-10T05:51:26.080Z,45.93
2022-08-10T05:54:04.161Z,46.14
2022-08-10T05:56:55.642Z,46.36
2022-08-10T06:00:33.004Z,46.01
2022-08-10T06:02:33.058Z,45.29
2022-08-10T06:05:08.106Z,44.27
2022-08-10T06:07:38.492Z,44.41
2022-08-10T06:10:12.571Z,44.30
2022-08-10T06:12:53.929Z,42.77
2022-08-10T06:15:50.274Z,42.38
2022-08-10T06:18:15.924Z,42.09
2022-08-10T06:20:44.552Z,40.25
2022-08-10T06:23:13.590Z,40.94
2022-08-10T06:26:11.421Z,39.79
2022-08-10T06:28:35.226Z,39.25
2022-08-10T06:31:05.408Z,39.55
2022-08-10T06:33:36.311Z,38.85
2022-08-10T06:36:07.150Z,38.42
2022-08-10T06:38:37.521Z,38.81
2022-08-10T06:41:18.088Z,37.91
2022-08-10T06:43:55.085Z,38.43
2022-08-10T06:46:24.669Z,37.41
2022-08-10T06:48:55.462Z,37.24
2022-08-10T06:51:26.998Z,37.21
2022-08-10T06:53:59.622Z,36.82
2022-08-10T06:56:37.825Z,36.04
2022-08-10T06:59:21.396Z,36.07
2022-08-10T07:01:54.772Z,35.32
2022-08-10T07:04:32.478Z,35.90
2022-08-10T07:07:04.487Z,35.69
2022-08-10T07:09:36.577Z,35.38
2022-08-10T07:12:09.306Z,35.04
2022-08-10T07:14:43.607Z,35.16
2022-08-10T07:17:16.507Z,33.82
2022-08-10T07:19:49.524Z,33.95
2022-08-10T07:23:01.821Z,34.04
2022-08-10T07:25:10.331Z,33.88
2022-08-10T07:27:59.955Z,33.12
2022-08-10T07:30:31.650Z,32.68
2022-08-10T07:33:01.537Z,31.21
2022-08-10T07:35:41.738Z,30.38
2022-08-10T07:38:21.888Z,30.93
2022-08-10T07:40:51.876Z,30.63
2022-08-10T07:43:24.911Z,30.53
2022-08-10T07:45:53.171Z,30.33
2022-08-10T07:48:27.078Z,29.47
2022-08-10T07:50:59.549Z,29.16
2022-08-10T07:53:33.213Z,28.25
2022-08-10T07:56:16.977Z,28.58
2022-08-10T07:58:59.171Z,29.16
2022-08-10T08:01:33.056Z,28.05
2022-08-10T08:04:11.568Z,28.10
2022-08-10T08:06:44.260Z,28.44
2022-08-10T08:09:12.931Z,28.15
2022-08-10T08:11:44.616Z,27.38
2022-08-10T08:14:16.920Z,27.30
2022-08-10T08:16:48.383Z,27.39
2022-08-10T08:19:37.745Z,27.02
2022-08-10T08:24:10.408Z,27.90
2022-08-10T08:24:57.957Z,26.52
2022-08-10T08:27:28.477Z,26.90
2022-08-10T08:29:58.804Z,28.11
2022-08-10T08:32:33.287Z,25.58
2022-08-10T08:35:10.768Z,24.75
2022-08-10T08:38:28.923Z,24.82
2022-08-10T08:40:30.308Z,26.05
2022-08-10T08:43:21.415Z,25.88
2022-08-10T08:46:15.949Z,27.11
2022-08-10T08:49:01.726Z,27.53
2022-08-10T08:52:09.324Z,26.58
2022-08-10T08:54:40.159Z,26.03
2022-08-10T08:57:22.937Z,25.52
2022-08-10T09:00:13.640Z,25.47
2022-08-10T09:03:08.805Z,25.52
2022-08-10T09:05:58.670Z,26.41
2022-08-10T09:08:45.963Z,25.78
2022-08-10T09:11:29.848Z,26.83
2022-08-10T09:14:02.937Z,26.87
2022-08-10T09:16:44.436Z,26.51
2022-08-10T09:19:36.146Z,26.73
2022-08-10T09:22:18.440Z,26.00
2022-08-10T09:24:55.614Z,26.10
2022-08-10T09:27:27.737Z,26.44
2022-08-10T09:29:59.042Z,26.49
2022-08-10T09:36:17.095Z,25.81
2022-08-10T09:36:28.668Z,26.54
2022-08-10T09:38:38.352Z,26.16
2022-08-10T09:41:21.085Z,25.91
2022-08-10T09:43:56.313Z,25.61
2022-08-10T09:46:35.606Z,25.34
2022-08-10T09:49:16.191Z,24.41
2022-08-10T09:52:14.607Z,24.63
2022-08-10T09:55:06.779Z,24.08
2022-08-10T09:57:57.054Z,24.18
2022-08-10T10:00:33.316Z,24.11
2022-08-10T10:03:17.009Z,23.65
2022-08-10T10:05:54.651Z,23.78
2022-08-10T10:08:31.769Z,23.54
2022-08-10T10:11:18.274Z,23.27
2022-08-10T10:14:03.881Z,24.23
2022-08-10T10:16:54.783Z,24.68
2022-08-10T10:19:37.272Z,22.76
2022-08-10T10:22:26.174Z,22.40
2022-08-10T10:25:19.998Z,20.70
2022-08-10T10:27:59.506Z,19.05
2022-08-10T10:30:36.581Z,18.61
2022-08-10T10:33:14.808Z,19.50
2022-08-10T10:35:50.281Z,20.31
2022-08-10T10:38:20.024Z,20.91
2022-08-10T10:41:01.775Z,18.45
2022-08-10T10:43:45.975Z,16.89
2022-08-10T10:46:26.112Z,16.87
2022-08-10T10:49:05.446Z,16.15
2022-08-10T10:51:39.129Z,13.85
2022-08-10T10:54:13.160Z,14.45
2022-08-10T10:56:53.084Z,13.68
2022-08-10T10:59:53.621Z,16.21
2022-08-10T11:02:32.627Z,15.80
2022-08-10T11:05:15.137Z,16.21
2022-08-10T11:07:53.140Z,17.13
2022-08-10T11:10:32.064Z,17.11
2022-08-10T11:14:26.525Z,18.49
2022-08-10T11:16:19.286Z,19.10
2022-08-10T11:18:56.233Z,20.04
2022-08-10T11:21:47.003Z,20.08
2022-08-10T11:24:47.263Z,20.11
2022-08-10T11:27:21.894Z,20.63
2022-08-10T11:30:00.180Z,19.96
2022-08-10T11:32:42.959Z,19.40
2022-08-10T11:35:21.636Z,18.44
2022-08-10T11:38:34.719Z,19.75
2022-08-10T11:40:54.212Z,17.96
2022-08-10T11:43:27.500Z,16.49
2022-08-10T11:46:08.111Z,14.37
2022-08-10T11:48:52.872Z,13.03
2022-08-10T11:51:29.779Z,13.82
2022-08-10T11:54:04.819Z,15.02
2022-08-10T11:56:40.009Z,16.01
2022-08-10T11:59:26.676Z,14.56
2022-08-10T12:01:57.905Z,14.14
2022-08-10T12:04:28.261Z,14.27
2022-08-10T12:06:57.733Z,13.58
2022-08-10T12:10:08.686Z,12.32
2022-08-10T12:12:17.759Z,11.60
2022-08-10T12:14:52.428Z,10.06
2022-08-10T12:17:28.080Z,9.78
2022-08-10T12:20:03.970Z,11.04
2022-08-10T12:22:37.769Z,11.65
2022-08-10T12:25:10.324Z,13.13
2022-08-10T12:27:43.235Z,13.35
2022-08-10T12:30:15.850Z,13.53
2022-08-10T12:32:56.067Z,13.57
2022-08-10T12:35:28.817Z,13.43
2022-08-10T12:38:09.746Z,12.69
2022-08-10T12:40:44.625Z,12.33
2022-08-10T12:44:06.787Z,11.27
2022-08-10T12:46:19.537Z,12.95
2022-08-10T12:48:58.113Z,13.96
2022-08-10T12:51:30.542Z,13.47
2022-08-10T12:54:08.840Z,13.30
2022-08-10T12:56:40.147Z,12.83
2022-08-10T12:59:12.434Z,11.00
2022-08-10T13:02:07.927Z,9.95
2022-08-10T13:04:34.729Z,11.66
2022-08-10T13:07:04.343Z,11.95
2022-08-10T13:09:34.637Z,12.41
2022-08-10T13:12:38.460Z,12.09
2022-08-10T13:15:43.167Z,12.53
2022-08-10T13:18:18.767Z,13.10
2022-08-10T13:20:53.514Z,12.35
2022-08-10T13:23:24.421Z,11.45
2022-08-10T13:25:55.402Z,11.99
2022-08-10T13:28:37.880Z,11.96
2022-08-10T13:31:16.853Z,13.14
2022-08-10T13:34:39.032Z,12.36
2022-08-10T13:36:42.661Z,11.79
2022-08-10T13:39:12.701Z,13.20
2022-08-10T13:41:43.731Z,12.58
2022-08-10T13:44:16.777Z,11.17
2022-08-10T13:46:50.795Z,11.05
2022-08-10T13:49:21.800Z,13.73
2022-08-10T13:51:55.093Z,14.68
2022-08-10T13:54:28.904Z,14.26
2022-08-10T13:56:58.715Z,12.85
2022-08-10T14:00:34.103Z,12.47
2022-08-10T14:02:26.357Z,12.40
2022-08-10T14:04:57.031Z,14.20
2022-08-10T14:07:28.818Z,14.36
2022-08-10T14:10:04.893Z,13.58
2022-08-10T14:12:33.822Z,12.74
2022-08-10T14:15:03.534Z,12.33
2022-08-10T14:17:34.482Z,13.64
2022-08-10T14:20:10.548Z,15.35
2022-08-10T14:22:43.005Z,16.92
2022-08-10T14:25:13.738Z,18.16
2022-08-10T14:28:03.485Z,18.05
2022-08-10T14:30:34.279Z,15.69
2022-08-10T14:33:04.948Z,15.83
2022-08-10T14:36:22.520Z,16.99
2022-08-10T14:38:29.888Z,16.21
2022-08-10T14:41:01.588Z,14.19
2022-08-10T14:43:35.915Z,13.95
2022-08-10T14:46:06.510Z,13.66
2022-08-10T14:48:40.262Z,13.09
2022-08-10T14:51:10.868Z,13.35
2022-08-10T14:53:44.284Z,13.37
2022-08-10T14:56:16.012Z,12.78
2022-08-10T14:59:05.285Z,12.99
2022-08-10T15:02:00.372Z,13.98
2022-08-10T15:04:28.888Z,13.76
2022-08-10T15:07:01.172Z,12.36
2022-08-10T15:10:00.565Z,11.46
2022-08-10T15:12:33.047Z,12.53
2022-08-10T15:15:03.689Z,12.91
2022-08-10T15:17:37.567Z,12.80
2022-08-10T15:20:13.481Z,13.31
2022-08-10T15:22:50.443Z,14.33
2022-08-10T15:25:25.012Z,13.94
2022-08-10T15:28:05.053Z,13.81
2022-08-10T15:30:40.919Z,13.88
2022-08-10T15:33:57.651Z,13.57
2022-08-10T15:36:38.748Z,14.33
2022-08-10T15:39:14.130Z,14.43
2022-08-10T15:41:58.876Z,14.63
2022-08-10T15:44:39.416Z,14.66
2022-08-10T15:47:12.178Z,14.29
2022-08-10T15:49:49.483Z,12.64
2022-08-10T15:52:39.687Z,12.08
2022-08-10T15:55:43.288Z,12.48
2022-08-10T15:58:11.829Z,12.06
2022-08-10T16:00:48.287Z,12.95
2022-08-10T16:03:24.485Z,12.27
2022-08-10T16:06:01.721Z,12.07
2022-08-10T16:08:55.745Z,13.18
2022-08-10T16:11:37.595Z,14.14
2022-08-10T16:14:20.474Z,14.28
2022-08-10T16:16:57.272Z,13.64
2022-08-10T16:19:28.652Z,12.85
2022-08-10T16:22:00.199Z,13.24
2022-08-10T16:24:32.855Z,12.47
2022-08-10T16:27:04.923Z,12.47
2022-08-10T16:29:56.057Z,13.51
2022-08-10T16:32:26.613Z,14.72
2022-08-10T16:34:56.515Z,15.72
2022-08-10T16:37:57.558Z,15.52
2022-08-10T16:40:22.314Z,15.05
2022-08-10T16:42:52.534Z,15.16
2022-08-10T16:45:30.249Z,14.61
2022-08-10T16:47:59.936Z,14.61
2022-08-10T16:50:31.289Z,14.34
2022-08-10T16:53:03.499Z,14.48
2022-08-10T16:55:49.505Z,14.24
2022-08-10T16:58:25.669Z,14.65
2022-08-10T17:01:01.670Z,15.24
2022-08-10T17:04:05.623Z,15.85
2022-08-10T17:06:29.772Z,15.69
2022-08-10T17:09:00.697Z,16.32
2022-08-10T17:11:31.567Z,17.25
2022-08-10T17:14:02.319Z,16.56
2022-08-10T17:16:37.146Z,16.68
2022-08-10T17:19:11.838Z,16.26
2022-08-10T17:21:51.484Z,16.94
2022-08-10T17:24:25.188Z,17.31
2022-08-10T17:26:53.359Z,17.34
2022-08-10T17:29:58.859Z,17.87
2022-08-10T17:32:22.096Z,18.14
2022-08-10T17:34:57.293Z,17.84
2022-08-10T17:37:28.736Z,18.09
2022-08-10T17:40:00.660Z,18.47
2022-08-10T17:42:29.377Z,18.64
2022-08-10T17:44:59.607Z,19.16
2022-08-10T17:47:29.958Z,19.06
2022-08-10T17:49:59.971Z,19.03
2022-08-10T17:52:32.330Z,19.01
2022-08-10T17:55:10.041Z,19.11
2022-08-10T17:57:40.636Z,19.13
2022-08-10T18:00:14.893Z,19.31
2022-08-10T18:02:48.119Z,19.74
2022-08-10T18:05:16.520Z,19.89
2022-08-10T18:07:48.186Z,20.43
2022-08-10T18:10:20.514Z,20.59
2022-08-10T18:12:50.761Z,20.83
2022-08-10T18:15:22.245Z,21.23
2022-08-10T18:17:59.126Z,21.36
2022-08-10T18:20:34.707Z,21.53
2022-08-10T18:23:04.806Z,21.57
2022-08-10T18:25:36.188Z,22.23
2022-08-10T18:28:09.128Z,22.43
2022-08-10T18:30:46.329Z,22.80
2022-08-10T18:33:17.385Z,23.14
2022-08-10T18:35:47.250Z,23.27
2022-08-10T18:38:17.239Z,23.88
2022-08-10T18:40:53.800Z,24.13
2022-08-10T18:44:06.075Z,24.64
2022-08-10T18:46:19.450Z,25.27
2022-08-10T18:48:53.228Z,25.78
2022-08-10T18:51:26.186Z,25.87
2022-08-10T18:54:00.601Z,26.17
2022-08-10T18:56:48.999Z,26.65
2022-08-10T18:59:33.553Z,27.34
2022-08-10T19:02:14.749Z,27.24
2022-08-10T19:05:04.374Z,27.65
2022-08-10T19:07:47.163Z,27.53
2022-08-10T19:10:28.686Z,28.02
2022-08-10T19:13:02.271Z,28.07
2022-08-10T19:15:43.788Z,28.19
2022-08-10T19:18:23.865Z,28.45
2022-08-10T19:20:59.190Z,28.69
2022-08-10T19:23:40.667Z,29.21
2022-08-10T19:26:43.901Z,28.89
2022-08-10T19:30:09.588Z,29.22
2022-08-10T19:32:21.592Z,29.59
2022-08-10T19:34:59.927Z,29.79
2022-08-10T19:37:38.508Z,30.12
2022-08-10T19:40:44.807Z,30.22
2022-08-10T19:43:30.888Z,30.51
2022-08-10T19:46:15.160Z,30.59
2022-08-10T19:48:53.527Z,30.88
2022-08-10T19:51:27.307Z,31.29
2022-08-10T19:54:03.414Z,31.82
2022-08-10T19:56:44.057Z,31.67
2022-08-10T20:00:16.088Z,32.24
2022-08-10T20:02:22.586Z,32.50
2022-08-10T20:05:02.622Z,32.79
2022-08-10T20:07:37.256Z,33.22
2022-08-10T20:10:16.318Z,33.59
2022-08-10T20:12:51.480Z,33.86
2022-08-10T20:15:29.130Z,34.46
2022-08-10T20:18:03.022Z,34.94
2022-08-10T20:20:37.435Z,35.12
2022-08-10T20:23:18.929Z,35.44
2022-08-10T20:25:56.448Z,35.72
2022-08-10T20:28:35.298Z,35.52
2022-08-10T20:31:11.526Z,35.51
2022-08-10T20:33:57.402Z,36.36
2022-08-10T20:36:32.036Z,36.45
2022-08-10T20:39:13.185Z,36.06
2022-08-10T20:41:55.602Z,35.96
2022-08-10T20:44:34.346Z,35.97
2022-08-10T20:47:07.098Z,36.30
2022-08-10T20:49:42.562Z,36.05
2022-08-10T20:52:12.284Z,35.98
2022-08-10T20:54:45.600Z,35.85
2022-08-10T20:57:56.173Z,35.94
2022-08-10T21:00:12.885Z,36.22
2022-08-10T21:02:54.934Z,36.25
2022-08-10T21:05:31.521Z,36.30
2022-08-10T21:08:13.663Z,36.31
2022-08-10T21:11:01.603Z,36.60
2022-08-10T21:14:10.751Z,36.79
2022-08-10T21:16:56.526Z,36.60
2022-08-10T21:19:41.132Z,36.61
2022-08-10T21:22:26.250Z,36.49
2022-08-10T21:25:02.335Z,36.67
2022-08-10T21:27:55.235Z,36.90
2022-08-10T21:30:37.837Z,37.37
2022-08-10T21:33:12.079Z,37.41
2022-08-10T21:35:45.191Z,37.46
2022-08-10T21:38:24.195Z,37.94
2022-08-10T21:41:58.011Z,37.70
2022-08-10T21:45:04.169Z,37.73
2022-08-10T21:48:17.695Z,38.00
2022-08-10T21:51:16.592Z,38.04
2022-08-10T21:54:18.146Z,38.33
2022-08-10T21:57:09.640Z,38.54
2022-08-10T22:00:00.929Z,39.17
2022-08-10T22:02:50.911Z,39.19
2022-08-10T22:05:44.633Z,39.25
2022-08-10T22:08:37.607Z,39.43
2022-08-10T22:11:28.451Z,39.54
2022-08-10T22:14:16.250Z,40.10
2022-08-10T22:17:59.179Z,40.90
2022-08-10T22:20:24.985Z,40.93
2022-08-10T22:23:34.905Z,40.83
2022-08-10T22:26:32.521Z,40.47
2022-08-10T22:29:23.586Z,40.49
2022-08-10T22:32:19.838Z,40.83
2022-08-10T22:35:21.533Z,41.13
2022-08-10T22:38:16.468Z,41.24
2022-08-10T22:41:05.531Z,41.34
2022-08-10T22:43:53.248Z,41.37
2022-08-10T22:46:43.692Z,41.90
2022-08-10T22:49:11.125Z,41.93
2022-08-10T22:51:52.175Z,42.03
2022-08-10T22:54:42.231Z,41.81
2022-08-10T22:57:34.968Z,42.02
2022-08-10T23:00:15.422Z,42.28
2022-08-10T23:02:51.463Z,42.31
2022-08-10T23:05:29.708Z,42.33
2022-08-10T23:08:02.583Z,42.27
2022-08-10T23:10:38.412Z,42.11
2022-08-10T23:13:13.778Z,42.25
2022-08-10T23:16:22.272Z,42.87
2022-08-10T23:19:09.689Z,43.27
2022-08-10T23:22:05.094Z,43.41
2022-08-10T23:24:37.832Z,43.22
2022-08-10T23:27:12.867Z,43.09
2022-08-10T23:30:09.352Z,43.21
2022-08-10T23:32:42.240Z,43.03
2022-08-10T23:36:04.523Z,43.12
2022-08-10T23:38:06.043Z,42.99
2022-08-10T23:40:36.382Z,42.89
2022-08-10T23:43:06.565Z,42.99
2022-08-10T23:45:53.970Z,43.18
2022-08-10T23:48:26.389Z,43.88
2022-08-10T23:50:59.704Z,43.93
2022-08-10T23:53:31.549Z,43.83
2022-08-10T23:56:03.333Z,44.08
2022-08-10T23:58:38.840Z,44.13
